createdAt,value
2022-12-08T00:06:33.392Z,0.40
2022-12-08T00:16:36.712Z,0.30
2022-12-08T00:26:38.693Z,0.20
2022-12-08T00:36:43.023Z,0.30
2022-12-08T00:46:45.254Z,0.40
2022-12-08T00:56:48.515Z,0.30
2022-12-08T01:06:50.516Z,0.30
2022-12-08T01:16:53.912Z,0.30
2022-12-08T01:26:55.867Z,0.30
2022-12-08T01:36:59.160Z,0.10
2022-12-08T01:47:01.118Z,0.10
2022-12-08T01:57:09.719Z,0.00
2022-12-08T02:07:16.242Z,-0.10
2022-12-08T02:17:37.332Z,0.00
2022-12-08T02:27:46.707Z,0.00
2022-12-08T02:37:57.416Z,-0.10
2022-12-08T02:48:00.351Z,-0.20
2022-12-08T02:58:43.639Z,-0.20
2022-12-08T03:08:51.077Z,-0.30
2022-12-08T03:19:09.079Z,-0.30
2022-12-08T03:29:11.914Z,-0.40
2022-12-08T03:39:15.212Z,-0.40
2022-12-08T03:49:17.194Z,-0.50
2022-12-08T03:59:20.446Z,-0.50
2022-12-08T04:09:22.504Z,-0.50
2022-12-08T04:19:25.871Z,-0.70
2022-12-08T04:29:27.763Z,-0.70
2022-12-08T04:39:31.008Z,-0.80
2022-12-08T04:49:32.918Z,-0.70
2022-12-08T04:59:36.435Z,-0.80
2022-12-08T05:09:38.368Z,-0.80
2022-12-08T05:19:41.716Z,-0.80
2022-12-08T05:29:43.627Z,-0.90
2022-12-08T05:39:46.901Z,-0.90
2022-12-08T05:49:48.797Z,-1.00
2022-12-08T05:59:52.054Z,-1.10
2022-12-08T06:09:53.951Z,-1.10
2022-12-08T06:19:57.251Z,-1.10
2022-12-08T06:29:59.410Z,-1.20
2022-12-08T06:40:03.110Z,-1.10
2022-12-08T06:50:07.616Z,-1.20
2022-12-08T07:00:12.635Z,-1.20
2022-12-08T07:10:14.589Z,-1.30
2022-12-08T07:20:18.209Z,-1.40
2022-12-08T07:30:20.581Z,-1.40
2022-12-08T07:40:23.881Z,-1.40
2022-12-08T07:50:25.814Z,-1.40
2022-12-08T08:00:29.281Z,-1.50
2022-12-08T08:10:31.401Z,-1.50
2022-12-08T08:20:34.704Z,-1.50
2022-12-08T08:30:36.624Z,-1.30
2022-12-08T08:40:39.882Z,-1.30
2022-12-08T08:50:41.787Z,-1.00
2022-12-08T09:00:45.060Z,0.80
2022-12-08T09:10:47.097Z,2.60
2022-12-08T09:20:50.378Z,3.90
2022-12-08T09:30:52.662Z,5.00
2022-12-08T09:40:56.371Z,5.70
2022-12-08T09:50:58.915Z,6.50
2022-12-08T10:01:02.331Z,7.10
2022-12-08T10:11:13.497Z,6.80
2022-12-08T10:21:20.602Z,7.20
2022-12-08T10:31:25.027Z,6.80
2022-12-08T10:41:28.388Z,6.90
2022-12-08T10:51:39.049Z,7.30
2022-12-08T11:01:47.912Z,7.20
2022-12-08T11:11:52.735Z,7.10
2022-12-08T11:21:56.089Z,5.80
2022-12-08T11:32:02.021Z,5.20
2022-12-08T11:42:08.564Z,4.20
2022-12-08T11:52:18.836Z,3.90
2022-12-08T12:02:24.939Z,3.60
2022-12-08T12:12:40.196Z,3.30
2022-12-08T12:22:46.612Z,3.20
2022-12-08T12:32:52.499Z,3.10
2022-12-08T12:43:22.243Z,3.00
2022-12-08T12:53:47.238Z,3.20
2022-12-08T13:04:02.243Z,3.40
2022-12-08T13:14:05.013Z,3.40
2022-12-08T13:24:26.924Z,3.50
2022-12-08T13:34:36.800Z,4.60
2022-12-08T14:06:11.275Z,4.10
2022-12-08T14:16:04.491Z,3.90
2022-12-08T14:26:10.321Z,3.80
2022-12-08T14:36:13.776Z,3.80
2022-12-08T14:57:14.950Z,3.80
2022-12-08T15:07:20.759Z,3.80
2022-12-08T15:17:32.994Z,3.70
2022-12-08T15:27:45.387Z,3.50
2022-12-08T15:37:53.328Z,3.00
2022-12-08T15:47:56.332Z,2.60
2022-12-08T16:08:45.030Z,1.90
2022-12-08T16:18:45.403Z,1.80
2022-12-08T16:28:55.036Z,1.50
2022-12-08T16:38:58.501Z,1.30
2022-12-08T16:49:00.481Z,1.10
2022-12-08T16:59:03.802Z,1.00
2022-12-08T17:09:05.830Z,1.00
2022-12-08T17:19:09.429Z,0.80
2022-12-08T17:29:11.341Z,0.60
2022-12-08T17:39:18.336Z,0.50
2022-12-08T17:49:22.851Z,0.30
2022-12-08T17:59:27.361Z,0.10
2022-12-08T18:09:31.235Z,0.10
2022-12-08T18:19:34.613Z,0.00
2022-12-08T18:29:36.524Z,-0.10
2022-12-08T18:39:39.849Z,-0.10
2022-12-08T18:49:41.959Z,-0.30
2022-12-08T18:59:45.380Z,-0.30
2022-12-08T19:09:47.332Z,-0.40
2022-12-08T19:19:50.635Z,-0.50
2022-12-08T19:29:52.575Z,-0.60
2022-12-08T19:39:55.880Z,-0.70
2022-12-08T19:49:58.329Z,-0.70
2022-12-08T20:00:01.614Z,-0.80
2022-12-08T20:10:05.255Z,-0.80
2022-12-08T20:20:10.660Z,-1.00
2022-12-08T20:30:17.076Z,-1.10
2022-12-08T20:40:20.850Z,-1.20
2022-12-08T20:50:22.862Z,-1.40
2022-12-08T21:00:26.368Z,-1.50
2022-12-08T21:10:28.577Z,-1.60
2022-12-08T21:20:31.887Z,-1.70
2022-12-08T21:30:33.982Z,-1.80
2022-12-08T21:40:37.384Z,-1.90
2022-12-08T21:50:39.400Z,-1.90
2022-12-08T22:00:42.827Z,-2.00
2022-12-08T22:10:47.328Z,-2.00
2022-12-08T22:20:50.983Z,-2.10
2022-12-08T22:30:53.155Z,-2.10
2022-12-08T22:40:56.472Z,-2.20
2022-12-08T22:50:59.009Z,-2.20
2022-12-08T23:01:02.666Z,-2.20
2022-12-08T23:11:04.784Z,-2.30
2022-12-08T23:21:10.633Z,-2.40
2022-12-08T23:31:12.857Z,-2.40
2022-12-08T23:41:16.694Z,-2.50
2022-12-08T23:51:19.154Z,-2.50
